Time;durP1;ratioP1;P1;durP2;ratioP2;P2;SDS_P1;SDS_P2;PMS_P1;PMS_P2;Temp;Humidity;BMP_temperature;BMP_pressure;BME280_temperature;BME280_humidity;BME280_pressure;Samples;Min_cycle;Max_cycle;Signal;HPM_P1;HPM_P2
2023/04/24 00:01:58;;;;;;;;;;;;;;;10.15;100.00;95809.16;5025771;28;19917;-69
2023/04/24 00:04:25;;;;;;;;;;;;;;;10.07;100.00;95804.84;5019718;28;20382;-68
2023/04/24 00:06:53;;;;;;;;;;;;;;;9.94;100.00;95799.72;5025218;28;19917;-69
2023/04/24 00:09:19;;;;;;;;;;;;;;;9.98;100.00;95798.97;5020836;28;19917;-68
2023/04/24 00:11:44;;;;;;;;;;;;;;;10.15;100.00;95795.50;5024635;28;19925;-68
2023/04/24 00:14:09;;;;;;;;;;;;;;;10.18;100.00;95804.91;5020956;28;20343;-68
2023/04/24 00:16:35;;;;;;;;;;;;;;;10.08;100.00;95799.00;5028828;28;19952;-69
2023/04/24 00:19:00;;;;;;;;;;;;;;;10.08;100.00;95798.19;5011139;28;19921;-69
2023/04/24 00:21:26;;;;;;;;;;;;;;;10.08;100.00;95793.53;5020395;28;19917;-68
2023/04/24 00:23:52;;;;;;;;;;;;;;;10.15;100.00;95792.75;5024709;28;19918;-68
2023/04/24 00:26:17;;;;;;;;;;;;;;;10.28;100.00;95795.91;5020358;28;19921;-68
2023/04/24 00:28:43;;;;;;;;;;;;;;;10.30;100.00;95791.63;5025403;28;19917;-68
2023/04/24 00:31:08;;;;;;;;;;;;;;;10.08;100.00;95793.53;5018846;28;19921;-68
2023/04/24 00:33:33;;;;;;;;;;;;;;;10.03;100.00;95791.16;5024794;28;20400;-68
2023/04/24 00:35:58;;;;;;;;;;;;;;;10.03;100.00;95796.63;5024408;28;19917;-68
2023/04/24 00:38:24;;;;;;;;;;;;;;;9.99;100.00;95801.28;5018947;28;20340;-69
2023/04/24 00:40:53;;;;;;;;;;;;;;;9.97;100.00;95797.38;5006205;28;19917;-69
2023/04/24 00:43:19;;;;;;;;;;;;;;;10.00;100.00;95805.59;5018731;28;20016;-69
2023/04/24 00:45:44;;;;;;;;;;;;;;;10.05;100.00;95799.75;5024088;28;20083;-69
2023/04/24 00:48:10;;;;;;;;;;;;;;;10.02;100.00;95794.28;5017526;28;19921;-69
2023/04/24 00:50:36;;;;;;;;;;;;;;;9.97;100.00;95787.22;5030910;28;19917;-69
2023/04/24 00:53:01;;;;;;;;;;;;;;;9.88;100.00;95790.28;5028611;28;19928;-71
2023/04/24 00:55:27;;;;;;;;;;;;;;;10.02;100.00;95792.31;5030014;28;19917;-69
2023/04/24 00:57:52;;;;;;;;;;;;;;;10.05;100.00;95788.03;5025937;28;19917;-68
2023/04/24 01:00:18;;;;;;;;;;;;;;;10.06;100.00;95787.63;5018893;28;19917;-70
2023/04/24 01:02:44;;;;;;;;;;;;;;;9.93;100.00;95789.16;5023577;28;20298;-68
2023/04/24 01:05:11;;;;;;;;;;;;;;;9.95;100.00;95784.84;5019991;28;19951;-69
2023/04/24 01:07:38;;;;;;;;;;;;;;;10.01;100.00;95784.50;5024218;28;19917;-70
2023/04/24 01:10:03;;;;;;;;;;;;;;;10.00;100.00;95788.41;5021006;28;19917;-70
2023/04/24 01:12:29;;;;;;;;;;;;;;;9.94;100.00;95777.84;5004902;28;19952;-69
2023/04/24 01:14:56;;;;;;;;;;;;;;;9.92;100.00;95777.44;5022851;28;19933;-70
2023/04/24 01:17:21;;;;;;;;;;;;;;;9.77;100.00;95776.56;5020460;28;20274;-69
2023/04/24 01:19:47;;;;;;;;;;;;;;;9.68;100.00;95773.41;5024181;28;19917;-69
2023/04/24 01:22:16;;;;;;;;;;;;;;;9.78;100.00;95777.38;5018723;28;19921;-69
2023/04/24 01:24:42;;;;;;;;;;;;;;;9.77;100.00;95779.31;5023220;28;19921;-70
2023/04/24 01:27:08;;;;;;;;;;;;;;;9.88;100.00;95771.16;5018904;28;19979;-70
2023/04/24 01:29:34;;;;;;;;;;;;;;;9.88;100.00;95779.34;5023715;28;19917;-70
2023/04/24 01:31:59;;;;;;;;;;;;;;;9.94;100.00;95771.59;5024486;28;20334;-69
2023/04/24 01:34:25;;;;;;;;;;;;;;;9.83;100.00;95779.75;5018792;28;20445;-69
2023/04/24 01:36:50;;;;;;;;;;;;;;;9.76;100.00;95775.03;5005941;28;20004;-70
2023/04/24 01:39:16;;;;;;;;;;;;;;;9.73;100.00;95783.97;5019588;28;19927;-70
2023/04/24 01:41:41;;;;;;;;;;;;;;;9.64;100.00;95783.56;5023874;28;19925;-70
2023/04/24 01:44:07;;;;;;;;;;;;;;;9.76;100.00;95777.75;5018438;28;19928;-70
2023/04/24 01:46:34;;;;;;;;;;;;;;;9.82;100.00;95771.94;5023895;28;19924;-68
2023/04/24 01:49:00;;;;;;;;;;;;;;;9.87;100.00;95771.56;5023786;28;20008;-68
2023/04/24 01:51:25;;;;;;;;;;;;;;;9.76;100.00;95766.81;5018623;28;19958;-69
2023/04/24 01:53:50;;;;;;;;;;;;;;;9.75;100.00;95761.72;5044607;28;19925;-70
2023/04/24 01:56:16;;;;;;;;;;;;;;;9.59;100.00;95762.03;5028966;28;20416;-70
2023/04/24 01:58:42;;;;;;;;;;;;;;;9.58;100.00;95760.50;5024277;28;19925;-70
2023/04/24 02:01:07;;;;;;;;;;;;;;;9.59;100.00;95770.25;5018538;28;20014;-71
2023/04/24 02:03:33;;;;;;;;;;;;;;;9.46;100.00;95769.00;5032132;28;20366;-71
2023/04/24 02:05:58;;;;;;;;;;;;;;;9.28;100.00;95777.09;5034744;28;19921;-70
2023/04/24 02:08:23;;;;;;;;;;;;;;;9.40;100.00;95775.97;5025172;28;20016;-70
2023/04/24 02:10:49;;;;;;;;;;;;;;;9.52;100.00;95778.41;5028146;28;20390;-70
2023/04/24 02:13:14;;;;;;;;;;;;;;;9.41;100.00;95783.03;5019827;28;19928;-69
2023/04/24 02:15:39;;;;;;;;;;;;;;;9.42;100.00;95779.91;5022942;28;19918;-69
2023/04/24 02:18:06;;;;;;;;;;;;;;;9.45;100.00;95781.09;5019538;28;20360;-72
2023/04/24 02:20:33;;;;;;;;;;;;;;;9.37;100.00;95791.97;5042081;28;19917;-72
2023/04/24 02:22:59;;;;;;;;;;;;;;;9.29;100.00;95787.66;5027822;28;19917;-67
2023/04/24 02:25:24;;;;;;;;;;;;;;;9.29;100.00;95784.91;5016298;28;19940;-68
2023/04/24 02:27:49;;;;;;;;;;;;;;;9.12;100.00;95793.78;5021760;28;20022;-67
2023/04/24 02:30:15;;;;;;;;;;;;;;;9.14;100.00;95785.97;5018930;28;20015;-66
2023/04/24 02:32:40;;;;;;;;;;;;;;;9.22;100.00;95787.59;5022086;28;19922;-68
2023/04/24 02:35:06;;;;;;;;;;;;;;;9.16;100.00;95778.19;5017352;28;20015;-70
2023/04/24 02:37:31;;;;;;;;;;;;;;;9.23;100.00;95785.66;5023154;28;19918;-68
2023/04/24 02:39:56;;;;;;;;;;;;;;;9.10;100.00;95787.91;5022294;28;19928;-69
2023/04/24 02:42:22;;;;;;;;;;;;;;;9.06;100.00;95781.63;5017599;28;20088;-71
2023/04/24 02:44:47;;;;;;;;;;;;;;;9.14;100.00;95784.00;5022941;28;19921;-67
2023/04/24 02:47:12;;;;;;;;;;;;;;;9.18;100.00;95787.59;5023021;28;19963;-70
2023/04/24 02:49:37;;;;;;;;;;;;;;;9.23;100.00;95782.91;5023240;28;19924;-68
2023/04/24 02:52:03;;;;;;;;;;;;;;;9.16;100.00;95789.91;5020407;28;19967;-78
2023/04/24 02:54:28;;;;;;;;;;;;;;;9.11;100.00;95782.06;5020335;28;20322;-68
2023/04/24 02:56:53;;;;;;;;;;;;;;;9.05;100.00;95799.94;5023043;28;19948;-69
2023/04/24 02:59:19;;;;;;;;;;;;;;;9.13;100.00;95790.66;5017570;28;19921;-70
2023/04/24 03:01:44;;;;;;;;;;;;;;;9.23;100.00;95786.44;5022238;28;19929;-68
2023/04/24 03:04:10;;;;;;;;;;;;;;;9.14;100.00;95785.97;5018091;28;19921;-70
2023/04/24 03:06:35;;;;;;;;;;;;;;;9.25;100.00;95781.34;5022351;28;20370;-69
2023/04/24 03:09:01;;;;;;;;;;;;;;;9.14;100.00;95780.50;5022316;28;19957;-73
2023/04/24 03:11:26;;;;;;;;;;;;;;;9.09;100.00;95776.19;5016772;28;19921;-70
2023/04/24 03:13:52;;;;;;;;;;;;;;;8.95;100.00;95776.88;5021772;28;19963;-70
2023/04/24 03:16:17;;;;;;;;;;;;;;;8.94;100.00;95774.50;5016979;28;19917;-72
2023/04/24 03:18:42;;;;;;;;;;;;;;;8.92;100.00;95777.63;5022608;28;20062;-69
2023/04/24 03:21:08;;;;;;;;;;;;;;;9.05;100.00;95778.09;5018265;28;19933;-77
2023/04/24 03:23:33;;;;;;;;;;;;;;;8.98;100.00;95772.59;5021870;28;19920;-69
2023/04/24 03:25:58;;;;;;;;;;;;;;;9.02;100.00;95772.63;5021307;28;19921;-69
2023/04/24 03:28:24;;;;;;;;;;;;;;;9.06;100.00;95778.91;5017961;28;20322;-68
2023/04/24 03:30:50;;;;;;;;;;;;;;;9.01;100.00;95782.75;5021740;28;19925;-71
2023/04/24 03:33:15;;;;;;;;;;;;;;;9.03;100.00;95774.97;5018618;28;19924;-67
2023/04/24 03:35:41;;;;;;;;;;;;;;;9.08;100.00;95779.31;5020772;28;19917;-70
2023/04/24 03:38:06;;;;;;;;;;;;;;;9.11;100.00;95782.06;5017696;28;20282;-72
2023/04/24 03:40:33;;;;;;;;;;;;;;;9.05;100.00;95775.38;5021893;28;19921;-69
2023/04/24 03:42:58;;;;;;;;;;;;;;;8.93;100.00;95792.03;5020256;28;19917;-71
2023/04/24 03:45:24;;;;;;;;;;;;;;;8.82;100.00;95791.19;5016738;28;20020;-70
2023/04/24 03:47:49;;;;;;;;;;;;;;;8.82;100.00;95791.19;5022399;28;19917;-69
2023/04/24 03:50:15;;;;;;;;;;;;;;;8.82;100.00;95793.91;5018792;28;19917;-73
2023/04/24 03:52:40;;;;;;;;;;;;;;;8.70;100.00;95789.53;5027495;28;19931;-69
2023/04/24 03:55:06;;;;;;;;;;;;;;;8.74;100.00;95793.06;5019845;28;19924;-70
2023/04/24 03:57:31;;;;;;;;;;;;;;;8.75;100.00;95797.34;5023437;28;19956;-69
2023/04/24 03:59:56;;;;;;;;;;;;;;;8.75;100.00;95797.34;5021887;28;19964;-69
2023/04/24 04:02:22;;;;;;;;;;;;;;;8.88;100.00;95789.69;5017494;28;19920;-69
2023/04/24 04:04:47;;;;;;;;;;;;;;;8.90;100.00;95792.81;5021557;28;20456;-72
2023/04/24 04:07:12;;;;;;;;;;;;;;;8.95;100.00;95792.47;5016694;28;19917;-69
2023/04/24 04:09:38;;;;;;;;;;;;;;;8.81;100.00;95801.31;5022464;28;19917;-68
2023/04/24 04:12:03;;;;;;;;;;;;;;;8.91;100.00;95803.38;5017847;28;20405;-75
2023/04/24 04:14:29;;;;;;;;;;;;;;;8.87;100.00;95797.06;5021291;28;19921;-68
2023/04/24 04:16:55;;;;;;;;;;;;;;;8.92;100.00;95802.19;5022892;28;19925;-69
2023/04/24 04:19:20;;;;;;;;;;;;;;;8.88;100.00;95804.13;5016927;28;20094;-68
2023/04/24 04:21:45;;;;;;;;;;;;;;;8.82;100.00;95802.88;5003827;28;19917;-69
2023/04/24 04:24:11;;;;;;;;;;;;;;;8.77;100.00;95795.84;5016787;28;19970;-69
2023/04/24 04:26:37;;;;;;;;;;;;;;;8.75;100.00;95798.16;5021454;28;20266;-69
2023/04/24 04:29:03;;;;;;;;;;;;;;;8.75;100.00;95798.16;5020012;28;20392;-77
2023/04/24 04:31:29;;;;;;;;;;;;;;;8.79;100.00;95801.69;5020600;28;19928;-68
2023/04/24 04:33:54;;;;;;;;;;;;;;;8.75;100.00;95803.63;5022654;28;19941;-70
2023/04/24 04:36:20;;;;;;;;;;;;;;;8.69;100.00;95807.84;5026214;28;20022;-68
2023/04/24 04:38:45;;;;;;;;;;;;;;;8.65;100.00;95812.50;5024836;28;19921;-68
2023/04/24 04:41:10;;;;;;;;;;;;;;;8.56;100.00;95810.06;5008658;28;19928;-72
2023/04/24 04:43:36;;;;;;;;;;;;;;;8.69;100.00;95812.53;5035714;28;19928;-69
2023/04/24 04:46:03;;;;;;;;;;;;;;;8.89;100.00;95813.88;5032525;28;19917;-77
2023/04/24 04:48:28;;;;;;;;;;;;;;;9.01;100.00;95814.75;5029020;28;19925;-69
2023/04/24 04:50:54;;;;;;;;;;;;;;;9.05;100.00;95827.28;5026242;28;19925;-69
2023/04/24 04:53:19;;;;;;;;;;;;;;;9.16;100.00;95819.97;5020090;28;19917;-70
2023/04/24 04:55:46;;;;;;;;;;;;;;;9.11;100.00;95819.50;5025389;28;19964;-69
2023/04/24 04:58:11;;;;;;;;;;;;;;;9.09;100.00;95821.84;5001478;28;19921;-71
2023/04/24 05:00:37;;;;;;;;;;;;;;;9.17;100.00;95837.13;5024186;28;19917;-69
2023/04/24 05:03:02;;;;;;;;;;;;;;;9.27;100.00;95832.91;5023812;28;20003;-77
2023/04/24 05:05:28;;;;;;;;;;;;;;;9.24;100.00;95839.91;5020481;28;19964;-69
2023/04/24 05:07:53;;;;;;;;;;;;;;;9.18;100.00;95844.94;5024156;28;19924;-70
2023/04/24 05:10:18;;;;;;;;;;;;;;;9.13;100.00;95850.75;5017712;28;19971;-68
2023/04/24 05:12:44;;;;;;;;;;;;;;;9.21;100.00;95851.59;5023810;28;20408;-70
2023/04/24 05:15:09;;;;;;;;;;;;;;;9.36;100.00;95857.94;5019161;28;20432;-69
2023/04/24 05:17:35;;;;;;;;;;;;;;;9.41;100.00;95862.28;5024689;28;19931;-70
2023/04/24 05:20:00;;;;;;;;;;;;;;;9.25;100.00;95866.06;5024437;28;19971;-69
2023/04/24 05:22:25;;;;;;;;;;;;;;;9.21;100.00;95878.13;5018665;28;19924;-69
2023/04/24 05:24:51;;;;;;;;;;;;;;;9.16;100.00;95869.13;5025204;28;19924;-70
2023/04/24 05:27:16;;;;;;;;;;;;;;;9.21;100.00;95875.41;5020516;28;19917;-73
2023/04/24 05:29:41;;;;;;;;;;;;;;;9.17;100.00;95878.88;5025075;28;19917;-71
2023/04/24 05:32:07;;;;;;;;;;;;;;;9.22;100.00;95872.31;5018800;28;19953;-71
2023/04/24 05:34:32;;;;;;;;;;;;;;;9.13;100.00;95883.53;5024785;28;20378;-70
2023/04/24 05:36:57;;;;;;;;;;;;;;;9.05;100.00;95881.91;5026081;28;19925;-70
2023/04/24 05:39:24;;;;;;;;;;;;;;;9.25;100.00;95887.91;5020439;28;19928;-71
2023/04/24 05:41:50;;;;;;;;;;;;;;;9.24;100.00;95886.38;5021606;28;19921;-70
2023/04/24 05:44:15;;;;;;;;;;;;;;;9.26;100.00;95892.22;5018778;28;19999;-70
2023/04/24 05:46:40;;;;;;;;;;;;;;;9.26;100.00;95896.94;5023000;28;20325;-70
2023/04/24 05:49:06;;;;;;;;;;;;;;;9.18;100.00;95887.84;5018635;28;19967;-70
2023/04/24 05:51:31;;;;;;;;;;;;;;;8.99;100.00;95888.88;5005081;28;19928;-70
2023/04/24 05:53:56;;;;;;;;;;;;;;;9.04;100.00;95896.72;5023301;28;19917;-70
2023/04/24 05:56:22;;;;;;;;;;;;;;;8.84;100.00;95887.16;5018372;28;19925;-70
2023/04/24 05:58:47;;;;;;;;;;;;;;;8.83;100.00;95888.34;5023702;28;19921;-71
2023/04/24 06:01:16;;;;;;;;;;;;;;;8.78;100.00;95903.88;5017316;28;19925;-70
2023/04/24 06:03:41;;;;;;;;;;;;;;;8.71;100.00;95905.75;5023468;28;19932;-69
2023/04/24 06:06:07;;;;;;;;;;;;;;;8.71;100.00;95911.22;5018043;28;19921;-69
2023/04/24 06:08:32;;;;;;;;;;;;;;;8.93;100.00;95904.81;5023004;28;19928;-71
2023/04/24 06:10:58;;;;;;;;;;;;;;;9.10;100.00;95911.59;5023623;28;19921;-71
2023/04/24 06:13:23;;;;;;;;;;;;;;;9.30;100.00;95905.94;5018494;28;20752;-69
2023/04/24 06:15:49;;;;;;;;;;;;;;;9.53;100.00;95911.97;5023420;28;20488;-70
2023/04/24 06:18:14;;;;;;;;;;;;;;;9.73;100.00;95909.78;5019098;28;19928;-72
2023/04/24 06:20:40;;;;;;;;;;;;;;;9.62;100.00;95916.34;5023708;28;19921;-71
2023/04/24 06:23:05;;;;;;;;;;;;;;;9.61;100.00;95921.00;5017715;28;20015;-69
2023/04/24 06:25:31;;;;;;;;;;;;;;;9.16;100.00;95915.59;5030186;28;19921;-72
2023/04/24 06:27:56;;;;;;;;;;;;;;;9.23;100.00;95917.56;5037255;28;19927;-71
2023/04/24 06:30:22;;;;;;;;;;;;;;;9.21;100.00;95922.63;5011528;28;20435;-70
2023/04/24 06:32:47;;;;;;;;;;;;;;;9.36;100.00;95921.59;5004013;28;19921;-69
2023/04/24 06:35:12;;;;;;;;;;;;;;;10.36;100.00;95922.69;5018510;28;19917;-69
2023/04/24 06:37:41;;;;;;;;;;;;;;;11.47;100.00;95926.47;5022443;28;19924;-70
2023/04/24 06:40:07;;;;;;;;;;;;;;;11.22;100.00;95934.69;5017642;28;19948;-72
2023/04/24 06:42:32;;;;;;;;;;;;;;;11.23;100.00;95929.97;5022305;28;19960;-70
2023/04/24 06:44:57;;;;;;;;;;;;;;;10.46;100.00;95941.09;5021743;28;19947;-70
2023/04/24 06:47:22;;;;;;;;;;;;;;;10.58;100.00;95929.03;5016630;28;20376;-71
2023/04/24 06:49:50;;;;;;;;;;;;;;;10.39;100.00;95946.53;5023539;28;20294;-70
2023/04/24 06:52:15;;;;;;;;;;;;;;;10.04;100.00;95951.38;5017307;28;20272;-72
2023/04/24 06:54:41;;;;;;;;;;;;;;;9.87;100.00;95963.00;5039176;28;19953;-71
2023/04/24 06:57:06;;;;;;;;;;;;;;;11.30;100.00;95960.13;5030704;28;19917;-69
2023/04/24 06:59:31;;;;;;;;;;;;;;;11.96;100.00;95962.53;5021255;28;19971;-72
2023/04/24 07:01:57;;;;;;;;;;;;;;;11.91;100.00;95960.19;5021539;28;20718;-69
2023/04/24 07:04:24;;;;;;;;;;;;;;;12.14;97.40;95954.28;5017296;28;20320;-71
2023/04/24 07:06:51;;;;;;;;;;;;;;;12.52;94.29;95948.31;5006825;28;20333;-70
2023/04/24 07:09:18;;;;;;;;;;;;;;;11.89;100.00;95956.25;5019163;28;20408;-72
2023/04/24 07:11:44;;;;;;;;;;;;;;;11.13;100.00;95963.63;5023556;28;20010;-71
2023/04/24 07:14:09;;;;;;;;;;;;;;;12.15;98.38;95966.03;5016828;28;19924;-70
2023/04/24 07:16:35;;;;;;;;;;;;;;;13.38;97.13;95961.66;5021452;28;19917;-70
2023/04/24 07:19:00;;;;;;;;;;;;;;;14.45;80.01;95973.72;5021689;28;19940;-72
2023/04/24 07:21:27;;;;;;;;;;;;;;;14.03;82.51;95963.94;5016559;28;19948;-70
2023/04/24 07:23:52;;;;;;;;;;;;;;;14.18;77.85;95970.84;5024005;28;19955;-70
2023/04/24 07:26:17;;;;;;;;;;;;;;;13.08;86.49;95970.44;5017498;28;19965;-69
2023/04/24 07:28:42;;;;;;;;;;;;;;;12.70;84.59;95973.75;5023165;28;19917;-69
2023/04/24 07:31:08;;;;;;;;;;;;;;;12.14;90.64;95980.97;5017137;28;19921;-69
2023/04/24 07:33:34;;;;;;;;;;;;;;;12.10;92.64;95970.00;5019829;28;20012;-70
2023/04/24 07:35:59;;;;;;;;;;;;;;;12.39;91.02;95978.94;5021499;28;20598;-70
2023/04/24 07:38:25;;;;;;;;;;;;;;;12.55;85.59;95972.22;5017064;28;19983;-70
2023/04/24 07:40:51;;;;;;;;;;;;;;;12.15;89.51;95977.81;5022679;28;19928;-69
2023/04/24 07:43:16;;;;;;;;;;;;;;;12.16;89.72;95989.59;5017516;28;19917;-69
2023/04/24 07:45:41;;;;;;;;;;;;;;;12.83;90.12;95985.09;5021048;28;19993;-70
2023/04/24 07:48:08;;;;;;;;;;;;;;;13.28;81.92;95984.47;4999465;28;19918;-70
2023/04/24 07:50:34;;;;;;;;;;;;;;;13.52;81.96;95980.03;5022104;28;19924;-70
2023/04/24 07:52:59;;;;;;;;;;;;;;;13.92;77.91;95984.06;5021684;28;19925;-70
2023/04/24 07:55:25;;;;;;;;;;;;;;;13.95;75.03;95972.25;4999728;28;20160;-70
2023/04/24 07:57:50;;;;;;;;;;;;;;;14.22;73.41;95990.09;5022208;28;19928;-72
2023/04/24 08:00:16;;;;;;;;;;;;;;;14.62;69.98;95987.75;5015629;28;19921;-72
2023/04/24 08:02:41;;;;;;;;;;;;;;;14.19;72.58;95980.69;5021486;28;19925;-72
2023/04/24 08:05:07;;;;;;;;;;;;;;;14.54;68.29;95989.78;5016649;28;19975;-71
2023/04/24 08:07:32;;;;;;;;;;;;;;;14.00;71.12;95995.78;5023875;28;20370;-71
2023/04/24 08:09:59;;;;;;;;;;;;;;;13.50;71.01;95990.66;5021466;28;19924;-69
2023/04/24 08:12:24;;;;;;;;;;;;;;;12.47;76.36;95985.19;5019201;28;19928;-70
2023/04/24 08:14:50;;;;;;;;;;;;;;;14.12;72.57;95981.53;5029771;28;20378;-69
2023/04/24 08:17:16;;;;;;;;;;;;;;;15.39;63.78;95989.16;5026171;28;19924;-71
2023/04/24 08:19:48;;;;;;;;;;;;;;;15.37;63.22;95994.31;5024923;28;19921;-69
2023/04/24 08:22:14;;;;;;;;;;;;;;;14.48;66.01;96000.47;5019846;28;20378;-71
2023/04/24 08:24:39;;;;;;;;;;;;;;;13.66;67.48;95995.66;5025025;28;19970;-71
2023/04/24 08:27:04;;;;;;;;;;;;;;;13.34;67.81;96004.91;5020222;28;20011;-71
2023/04/24 08:29:30;;;;;;;;;;;;;;;12.61;72.12;96009.88;5024304;28;19917;-70
2023/04/24 08:31:55;;;;;;;;;;;;;;;12.77;71.99;96012.19;5025209;28;20420;-71
2023/04/24 08:34:21;;;;;;;;;;;;;;;12.50;70.91;96014.63;5020710;28;20353;-70
2023/04/24 08:36:46;;;;;;;;;;;;;;;12.63;70.33;96014.97;5027081;28;20369;-70
2023/04/24 08:39:11;;;;;;;;;;;;;;;13.45;66.29;96029.59;5019834;28;20008;-73
2023/04/24 08:41:37;;;;;;;;;;;;;;;13.59;63.44;96015.75;5026934;28;19917;-70
2023/04/24 08:44:03;;;;;;;;;;;;;;;12.88;63.95;96019.63;5027163;28;20004;-75
2023/04/24 08:46:30;;;;;;;;;;;;;;;12.59;64.69;96036.97;5005868;28;19925;-69
2023/04/24 08:48:55;;;;;;;;;;;;;;;12.66;65.79;96035.38;5006788;28;19917;-69
2023/04/24 08:51:21;;;;;;;;;;;;;;;12.67;67.47;96040.47;5019451;28;19928;-69
2023/04/24 08:53:46;;;;;;;;;;;;;;;12.52;69.22;96045.22;5024470;28;19964;-70
2023/04/24 08:56:12;;;;;;;;;;;;;;;12.48;73.30;96038.16;5000348;28;19924;-70
2023/04/24 08:58:39;;;;;;;;;;;;;;;12.51;73.73;96045.63;5025520;28;19967;-70
2023/04/24 09:01:04;;;;;;;;;;;;;;;12.30;69.16;96035.44;5025021;28;20019;-74
2023/04/24 09:03:31;;;;;;;;;;;;;;;12.27;68.64;96042.50;5009658;28;20179;-71
2023/04/24 09:05:57;;;;;;;;;;;;;;;12.13;71.50;96043.28;5024744;28;20425;-69
2023/04/24 09:08:23;;;;;;;;;;;;;;;12.23;72.28;96049.97;5003146;28;19956;-71
2023/04/24 09:10:49;;;;;;;;;;;;;;;12.46;68.90;96049.56;5024945;28;19971;-70
2023/04/24 09:13:14;;;;;;;;;;;;;;;12.76;65.99;96060.06;5018297;28;19921;-71
2023/04/24 09:15:40;;;;;;;;;;;;;;;12.65;64.12;96039.31;5024065;28;20480;-71
2023/04/24 09:18:06;;;;;;;;;;;;;;;14.03;61.34;96065.81;5020006;28;19964;-72
2023/04/24 09:20:31;;;;;;;;;;;;;;;15.00;56.12;96053.88;5024922;28;19917;-72
2023/04/24 09:22:57;;;;;;;;;;;;;;;15.75;53.46;96060.47;5023849;28;19917;-69
2023/04/24 09:25:25;;;;;;;;;;;;;;;15.44;52.15;96057.69;5020984;28;20395;-69
2023/04/24 09:27:53;;;;;;;;;;;;;;;15.68;52.37;96040.03;5030148;28;19963;-70
2023/04/24 09:30:21;;;;;;;;;;;;;;;14.44;53.30;96062.28;5031038;28;19976;-70
2023/04/24 09:32:46;;;;;;;;;;;;;;;13.86;55.27;96065.50;5037101;28;19925;-70
2023/04/24 09:35:13;;;;;;;;;;;;;;;13.74;55.20;96064.00;5021911;28;19917;-70
2023/04/24 09:37:41;;;;;;;;;;;;;;;13.54;55.16;96069.25;5025626;28;19940;-70
2023/04/24 09:40:20;;;;;;;;;;;;;;;13.52;55.01;96079.06;5034209;28;19924;-70
2023/04/24 09:42:50;;;;;;;;;;;;;;;13.16;55.72;96070.94;5030202;28;20012;-70
2023/04/24 09:45:16;;;;;;;;;;;;;;;12.79;57.02;96073.03;5029062;28;19917;-69
2023/04/24 09:47:41;;;;;;;;;;;;;;;12.52;57.07;96075.44;5033949;28;19925;-70
2023/04/24 09:50:14;;;;;;;;;;;;;;;12.23;58.56;96063.69;5029028;28;19921;-69
2023/04/24 09:52:40;;;;;;;;;;;;;;;12.58;60.93;96070.31;5029869;28;19922;-70
2023/04/24 09:55:16;;;;;;;;;;;;;;;12.79;61.29;96080.50;5029460;28;19924;-68
2023/04/24 09:57:48;;;;;;;;;;;;;;;12.59;61.23;96071.91;4999894;28;20019;-69
2023/04/24 10:00:17;;;;;;;;;;;;;;;12.29;60.16;96077.81;5028393;28;19924;-69
2023/04/24 10:02:44;;;;;;;;;;;;;;;12.60;60.83;96071.50;5031904;28;19917;-70
2023/04/24 10:05:11;;;;;;;;;;;;;;;12.93;59.43;96082.44;5022675;28;19921;-70
2023/04/24 10:07:37;;;;;;;;;;;;;;;13.11;56.83;96074.91;5030715;28;19979;-69
2023/04/24 10:10:03;;;;;;;;;;;;;;;13.26;57.34;96072.88;5029515;28;19948;-74
2023/04/24 10:12:29;;;;;;;;;;;;;;;13.75;55.76;96079.31;5029193;28;20425;-71
2023/04/24 10:14:55;;;;;;;;;;;;;;;13.72;54.70;96068.34;5029016;28;19928;-69
2023/04/24 10:17:21;;;;;;;;;;;;;;;14.11;54.41;96073.56;5023117;28;19925;-69
2023/04/24 10:19:47;;;;;;;;;;;;;;;14.00;54.01;96072.09;5033511;28;19917;-70
2023/04/24 10:22:12;;;;;;;;;;;;;;;13.95;52.18;96076.06;5028386;28;19917;-71
2023/04/24 10:24:38;;;;;;;;;;;;;;;14.94;51.19;96085.88;5033541;28;19917;-71
2023/04/24 10:27:04;;;;;;;;;;;;;;;15.58;50.45;96090.63;5026456;28;19975;-75
2023/04/24 10:29:31;;;;;;;;;;;;;;;14.90;47.87;96091.41;5032737;28;19921;-70
2023/04/24 10:31:56;;;;;;;;;;;;;;;15.33;48.90;96095.69;5029732;28;19965;-70
2023/04/24 10:34:22;;;;;;;;;;;;;;;15.35;47.75;96096.06;5003119;28;19960;-73
2023/04/24 10:36:50;;;;;;;;;;;;;;;14.81;48.66;96097.41;5008931;28;20346;-73
2023/04/24 10:39:16;;;;;;;;;;;;;;;13.85;49.14;96091.47;5021834;28;19917;-70
2023/04/24 10:41:41;;;;;;;;;;;;;;;13.44;48.77;96092.09;5026053;28;19928;-70
2023/04/24 10:44:08;;;;;;;;;;;;;;;13.30;50.15;96098.38;5018378;28;19917;-70
2023/04/24 10:46:33;;;;;;;;;;;;;;;13.37;50.06;96114.91;5023363;28;19917;-70
2023/04/24 10:48:59;;;;;;;;;;;;;;;13.26;49.28;96113.34;5022923;28;19924;-70
2023/04/24 10:51:42;;;;;;;;;;;;;;;12.88;50.85;96118.56;5017153;28;20013;-69
2023/04/24 10:54:43;;;;;;;;;;;;;;;12.90;51.30;96119.72;5016381;28;19921;-71
2023/04/24 10:57:17;;;;;;;;;;;;;;;12.58;52.29;96120.53;4975488;28;19926;-69
2023/04/24 10:59:43;;;;;;;;;;;;;;;12.39;52.91;96123.72;4999564;28;19971;-72
2023/04/24 11:02:09;;;;;;;;;;;;;;;12.53;52.97;96131.97;5018441;28;19921;-68
2023/04/24 11:04:37;;;;;;;;;;;;;;;12.57;52.28;96124.50;5021188;28;20023;-69
2023/04/24 11:07:03;;;;;;;;;;;;;;;12.67;52.74;96122.13;5018658;28;19917;-75
2023/04/24 11:09:30;;;;;;;;;;;;;;;12.68;51.31;96115.47;5022639;28;20370;-70
2023/04/24 11:12:13;;;;;;;;;;;;;;;12.44;51.67;96120.56;5022458;28;19921;-71
2023/04/24 11:14:57;;;;;;;;;;;;;;;13.28;50.75;96110.97;5021710;28;19949;-70
2023/04/24 11:17:33;;;;;;;;;;;;;;;13.91;50.02;96120.13;5017207;28;20299;-70
2023/04/24 11:20:04;;;;;;;;;;;;;;;14.13;47.34;96108.97;5023124;28;19917;-70
2023/04/24 11:22:33;;;;;;;;;;;;;;;13.92;48.34;96112.69;5022140;28;19925;-72
2023/04/24 11:25:01;;;;;;;;;;;;;;;14.12;48.23;96124.72;5021528;28;19917;-70
2023/04/24 11:27:29;;;;;;;;;;;;;;;13.77;49.30;96118.25;5000778;28;19932;-73
2023/04/24 11:29:55;;;;;;;;;;;;;;;13.36;49.38;96109.78;5021902;28;19927;-70
2023/04/24 11:32:23;;;;;;;;;;;;;;;12.99;48.88;96109.09;5017770;28;20017;-71
2023/04/24 11:34:54;;;;;;;;;;;;;;;13.06;49.40;96113.81;5021796;28;19928;-71
2023/04/24 11:37:20;;;;;;;;;;;;;;;13.06;49.74;96122.06;5014231;28;19918;-70
2023/04/24 11:39:45;;;;;;;;;;;;;;;12.96;51.06;96120.09;5022328;28;19924;-71
2023/04/24 11:42:14;;;;;;;;;;;;;;;13.11;49.54;96120.88;5016740;28;19976;-70
2023/04/24 11:44:39;;;;;;;;;;;;;;;13.44;50.28;96118.81;5004818;28;20378;-70
2023/04/24 11:47:05;;;;;;;;;;;;;;;13.53;49.51;96117.19;5020731;28;19921;-74
2023/04/24 11:49:30;;;;;;;;;;;;;;;13.61;48.95;96122.66;5027036;28;19993;-70
2023/04/24 11:51:56;;;;;;;;;;;;;;;13.30;49.97;96125.13;5026032;28;19921;-70
2023/04/24 11:54:21;;;;;;;;;;;;;;;13.45;49.89;96123.91;5022180;28;20349;-69
2023/04/24 11:56:47;;;;;;;;;;;;;;;13.20;50.15;96129.47;5026210;28;20374;-70
2023/04/24 11:59:12;;;;;;;;;;;;;;;13.26;49.01;96136.13;5022055;28;19991;-70
2023/04/24 12:01:47;;;;;;;;;;;;;;;12.92;49.43;96124.84;5025913;28;20413;-71
2023/04/24 12:04:13;;;;;;;;;;;;;;;13.15;49.69;96127.13;5021138;28;19918;-70
2023/04/24 12:06:38;;;;;;;;;;;;;;;13.11;49.88;96135.41;5025606;28;19917;-70
2023/04/24 12:09:04;;;;;;;;;;;;;;;13.51;49.69;96119.56;5022079;28;20032;-71
2023/04/24 12:11:29;;;;;;;;;;;;;;;13.96;49.04;96116.19;4991231;28;19988;-70
2023/04/24 12:13:54;;;;;;;;;;;;;;;13.76;48.94;96122.19;5025234;28;20023;-71
2023/04/24 12:16:20;;;;;;;;;;;;;;;13.70;48.87;96126.56;5019542;28;19921;-72
2023/04/24 12:18:45;;;;;;;;;;;;;;;13.42;48.71;96126.69;5024918;28;19917;-70
2023/04/24 12:21:18;;;;;;;;;;;;;;;13.76;48.80;96129.66;5020111;28;20325;-70
2023/04/24 12:23:44;;;;;;;;;;;;;;;13.68;48.79;96136.38;5024986;28;19921;-70
2023/04/24 12:26:10;;;;;;;;;;;;;;;13.44;48.77;96132.56;5019997;28;19939;-69
2023/04/24 12:28:36;;;;;;;;;;;;;;;13.15;49.29;96138.13;5025047;28;19921;-70
2023/04/24 12:31:01;;;;;;;;;;;;;;;13.54;49.40;96138.03;5024946;28;19917;-71
2023/04/24 12:33:27;;;;;;;;;;;;;;;13.67;48.71;96137.59;5019301;28;20336;-70
2023/04/24 12:35:55;;;;;;;;;;;;;;;13.75;49.17;96144.59;5025153;28;19948;-69
2023/04/24 12:38:25;;;;;;;;;;;;;;;13.81;49.02;96131.19;5020594;28;19986;-73
2023/04/24 12:41:01;;;;;;;;;;;;;;;13.33;49.08;96132.59;5025225;28;20012;-70